Lake Lincolndale, New York
Current Conditions -  °F | °C
As of 10:53 PM on Monday 22 Dec 2014 (Local Time) from KDXR Reporting Station
Light Rain Light Rain  
Wind Chill: 37°   Ceiling: 700
Heat Index: 40°   Visibility: 1.5mi
Dew Point: 36°   Wind: 5mph
Humidity: 86%   Direction: 70°ENE
Pressure: 30.23"   Gusts: NA
Location:  41.3759°N, 73.7482°W
Report Text: KDXR 230353Z AUTO 07004KT 1 1/2SM -RA BR OVC007 04/02 A3023 RMK AO2 RAB40 SLP239 P0001 T00440022
Loading
Personal Weather Stations






























Interactive Weather Map New forecast layout! Learn more

10-Day Weather Forecast

Advertisements
Track Severe Weather on mobile